Eastern Slopes Regional Airport


Codes: KIZG/FRY
Name: Eastern Slopes Regional Airport
City: Fryeburg
Country: United States
Elevation: 454 ft.
Wikipedia:

Photos at Eastern Slopes Regional Airport


   Photos courtesy of SpottingLog. You can add your own sightings and photos by signing up for a free trial today.



No photos found.

Weather at Eastern Slopes Regional Airport


Time (UTC)DescriptionTempratureWindCloud coverageVisibilityPressureHumidity
19-Apr-2024 03:00Light Rain7°C2 mph, SW100%10000m1021hPa85%
19-Apr-2024 06:00Overcast Clouds6°C2 mph, S100%10000m1021hPa88%
19-Apr-2024 09:00Overcast Clouds5°C2 mph, S100%10000m1022hPa91%
19-Apr-2024 12:00Overcast Clouds5°C4 mph, S100%10000m1023hPa86%
19-Apr-2024 15:00Overcast Clouds8°C7 mph, S100%10000m1022hPa70%
19-Apr-2024 18:00Overcast Clouds12°C9 mph, S100%10000m1020hPa54%
19-Apr-2024 21:00Overcast Clouds10°C9 mph, S100%10000m1018hPa61%
20-Apr-2024 00:00Overcast Clouds6°C7 mph, S100%10000m1017hPa77%
20-Apr-2024 03:00Light Rain5°C4 mph, S100%10000m1016hPa90%
20-Apr-2024 06:00Overcast Clouds6°C7 mph, SW100%10000m1014hPa86%
20-Apr-2024 09:00Light Rain5°C4 mph, SW100%10000m1013hPa95%
20-Apr-2024 12:00Light Rain7°C4 mph, SW100%10000m1012hPa90%
20-Apr-2024 15:00Overcast Clouds13°C7 mph, SW99%10000m1010hPa50%
20-Apr-2024 18:00Overcast Clouds15°C11 mph, SW96%10000m1007hPa32%
20-Apr-2024 21:00Overcast Clouds11°C13 mph, W88%10000m1007hPa55%
21-Apr-2024 00:00Broken Clouds5°C4 mph, W65%10000m1010hPa72%
21-Apr-2024 03:00Clear Sky3°C4 mph, W5%10000m1011hPa80%
21-Apr-2024 06:00Clear Sky1°C4 mph, SW7%10000m1011hPa86%
21-Apr-2024 09:00Clear Sky1°C4 mph, SW0%10000m1011hPa83%
21-Apr-2024 12:00Clear Sky5°C4 mph, SW1%10000m1012hPa63%
21-Apr-2024 15:00Clear Sky10°C9 mph, W7%10000m1011hPa39%
21-Apr-2024 18:00Few Clouds12°C11 mph, W13%10000m1009hPa33%
21-Apr-2024 21:00Overcast Clouds13°C11 mph, W90%10000m1008hPa35%
22-Apr-2024 00:00Broken Clouds6°C7 mph, SW61%10000m1009hPa58%
22-Apr-2024 03:00Clear Sky6°C9 mph, SW2%10000m1010hPa53%
22-Apr-2024 06:00Clear Sky5°C11 mph, SW4%10000m1008hPa64%
22-Apr-2024 09:00Clear Sky5°C11 mph, W8%10000m1009hPa64%
22-Apr-2024 12:00Clear Sky5°C9 mph, NW9%10000m1012hPa50%
22-Apr-2024 15:00Clear Sky7°C11 mph, NW4%10000m1014hPa28%
22-Apr-2024 18:00Clear Sky9°C13 mph, W2%10000m1014hPa24%
22-Apr-2024 21:00Clear Sky9°C11 mph, NW0%10000m1015hPa27%
23-Apr-2024 00:00Clear Sky3°C4 mph, NW0%10000m1017hPa46%
23-Apr-2024 03:00Clear Sky-1°C0 mph, N0%10000m1019hPa60%
23-Apr-2024 06:00Clear Sky-1°C0 mph, SW2%10000m1021hPa62%
23-Apr-2024 09:00Clear Sky-1°C2 mph, NW2%10000m1022hPa61%
23-Apr-2024 12:00Few Clouds4°C2 mph, E17%10000m1022hPa47%
23-Apr-2024 15:00Overcast Clouds11°C7 mph, S98%10000m1020hPa49%
23-Apr-2024 18:00Overcast Clouds13°C11 mph, S99%10000m1017hPa46%
23-Apr-2024 21:00Overcast Clouds10°C11 mph, S100%10000m1017hPa63%
24-Apr-2024 00:00Overcast Clouds9°C7 mph, SE100%10000m1017hPa68%